sensor_id;sensor_type;location;lat;lon;timestamp;P1;durP1;ratioP1;P2;durP2;ratioP2
35592;SDS011;64447;52.140;5.602;2023-12-04T00:00:36;24.48;;;14.73;;
35592;SDS011;64447;52.140;5.602;2023-12-04T00:03:02;23.90;;;14.15;;
35592;SDS011;64447;52.140;5.602;2023-12-04T00:05:28;26.77;;;14.85;;
35592;SDS011;64447;52.140;5.602;2023-12-04T00:07:53;26.50;;;14.63;;
35592;SDS011;64447;52.140;5.602;2023-12-04T00:10:19;24.95;;;14.57;;
35592;SDS011;64447;52.140;5.602;2023-12-04T00:12:45;29.08;;;15.10;;
35592;SDS011;64447;52.140;5.602;2023-12-04T00:15:11;27.67;;;15.30;;
35592;SDS011;64447;52.140;5.602;2023-12-04T00:17:36;25.60;;;15.13;;
35592;SDS011;64447;52.140;5.602;2023-12-04T00:20:05;28.73;;;15.65;;
35592;SDS011;64447;52.140;5.602;2023-12-04T00:22:33;28.02;;;15.57;;
35592;SDS011;64447;52.140;5.602;2023-12-04T00:24:58;25.40;;;14.10;;
35592;SDS011;64447;52.140;5.602;2023-12-04T00:27:24;29.33;;;15.23;;
35592;SDS011;64447;52.140;5.602;2023-12-04T00:29:52;26.35;;;15.13;;
35592;SDS011;64447;52.140;5.602;2023-12-04T00:32:18;25.15;;;15.05;;
35592;SDS011;64447;52.140;5.602;2023-12-04T00:34:43;30.38;;;16.40;;
35592;SDS011;64447;52.140;5.602;2023-12-04T00:37:09;26.77;;;15.50;;
35592;SDS011;64447;52.140;5.602;2023-12-04T00:39:35;29.85;;;16.67;;
35592;SDS011;64447;52.140;5.602;2023-12-04T00:42:00;28.13;;;17.05;;
35592;SDS011;64447;52.140;5.602;2023-12-04T00:44:26;28.20;;;16.70;;
35592;SDS011;64447;52.140;5.602;2023-12-04T00:46:52;28.83;;;17.60;;
35592;SDS011;64447;52.140;5.602;2023-12-04T00:49:17;30.52;;;16.40;;
35592;SDS011;64447;52.140;5.602;2023-12-04T00:51:43;28.38;;;16.50;;
35592;SDS011;64447;52.140;5.602;2023-12-04T00:54:09;29.90;;;17.25;;
35592;SDS011;64447;52.140;5.602;2023-12-04T00:56:37;29.70;;;16.45;;
35592;SDS011;64447;52.140;5.602;2023-12-04T00:59:04;31.88;;;16.25;;
35592;SDS011;64447;52.140;5.602;2023-12-04T01:01:32;27.02;;;16.33;;
35592;SDS011;64447;52.140;5.602;2023-12-04T01:03:57;25.73;;;15.15;;
35592;SDS011;64447;52.140;5.602;2023-12-04T01:06:24;31.95;;;16.75;;
35592;SDS011;64447;52.140;5.602;2023-12-04T01:08:50;30.15;;;17.33;;
35592;SDS011;64447;52.140;5.602;2023-12-04T01:11:17;29.65;;;17.23;;
35592;SDS011;64447;52.140;5.602;2023-12-04T01:13:44;28.20;;;16.48;;
35592;SDS011;64447;52.140;5.602;2023-12-04T01:16:10;29.30;;;17.17;;
35592;SDS011;64447;52.140;5.602;2023-12-04T01:18:36;29.67;;;17.35;;
35592;SDS011;64447;52.140;5.602;2023-12-04T01:21:01;33.50;;;17.33;;
35592;SDS011;64447;52.140;5.602;2023-12-04T01:23:27;32.72;;;17.65;;
35592;SDS011;64447;52.140;5.602;2023-12-04T01:25:53;32.78;;;17.63;;
35592;SDS011;64447;52.140;5.602;2023-12-04T01:28:18;31.48;;;17.95;;
35592;SDS011;64447;52.140;5.602;2023-12-04T01:30:44;29.23;;;16.30;;
35592;SDS011;64447;52.140;5.602;2023-12-04T01:33:10;30.17;;;17.27;;
35592;SDS011;64447;52.140;5.602;2023-12-04T01:35:35;32.35;;;17.33;;
35592;SDS011;64447;52.140;5.602;2023-12-04T01:38:01;32.55;;;18.00;;
35592;SDS011;64447;52.140;5.602;2023-12-04T01:40:27;33.45;;;16.67;;
35592;SDS011;64447;52.140;5.602;2023-12-04T01:42:52;29.77;;;18.05;;
35592;SDS011;64447;52.140;5.602;2023-12-04T01:45:18;29.55;;;17.17;;
35592;SDS011;64447;52.140;5.602;2023-12-04T01:47:44;32.10;;;17.50;;
35592;SDS011;64447;52.140;5.602;2023-12-04T01:50:11;28.60;;;16.75;;
35592;SDS011;64447;52.140;5.602;2023-12-04T01:52:37;30.50;;;16.88;;
35592;SDS011;64447;52.140;5.602;2023-12-04T01:55:04;31.80;;;17.73;;
35592;SDS011;64447;52.140;5.602;2023-12-04T01:57:31;29.95;;;16.88;;
35592;SDS011;64447;52.140;5.602;2023-12-04T01:59:56;28.40;;;14.95;;
35592;SDS011;64447;52.140;5.602;2023-12-04T02:02:23;31.42;;;16.33;;
35592;SDS011;64447;52.140;5.602;2023-12-04T02:04:48;26.90;;;15.30;;
35592;SDS011;64447;52.140;5.602;2023-12-04T02:07:14;29.02;;;15.80;;
35592;SDS011;64447;52.140;5.602;2023-12-04T02:09:40;26.88;;;15.25;;
35592;SDS011;64447;52.140;5.602;2023-12-04T02:12:05;30.75;;;17.00;;
35592;SDS011;64447;52.140;5.602;2023-12-04T02:14:31;26.98;;;15.57;;
35592;SDS011;64447;52.140;5.602;2023-12-04T02:16:57;30.20;;;15.43;;
35592;SDS011;64447;52.140;5.602;2023-12-04T02:19:25;28.70;;;15.90;;
35592;SDS011;64447;52.140;5.602;2023-12-04T02:21:51;30.02;;;17.00;;
35592;SDS011;64447;52.140;5.602;2023-12-04T02:24:17;30.45;;;16.38;;
35592;SDS011;64447;52.140;5.602;2023-12-04T02:26:52;27.65;;;15.50;;
35592;SDS011;64447;52.140;5.602;2023-12-04T02:29:29;24.95;;;14.82;;
35592;SDS011;64447;52.140;5.602;2023-12-04T02:31:57;27.45;;;15.13;;
35592;SDS011;64447;52.140;5.602;2023-12-04T02:34:26;28.85;;;15.85;;
35592;SDS011;64447;52.140;5.602;2023-12-04T02:36:54;25.55;;;15.48;;
35592;SDS011;64447;52.140;5.602;2023-12-04T02:39:21;28.58;;;15.07;;
35592;SDS011;64447;52.140;5.602;2023-12-04T02:41:47;25.17;;;14.57;;
35592;SDS011;64447;52.140;5.602;2023-12-04T02:44:13;27.70;;;14.63;;
35592;SDS011;64447;52.140;5.602;2023-12-04T02:46:39;26.80;;;15.30;;
35592;SDS011;64447;52.140;5.602;2023-12-04T02:49:04;25.52;;;13.95;;
35592;SDS011;64447;52.140;5.602;2023-12-04T02:51:30;24.95;;;15.15;;
35592;SDS011;64447;52.140;5.602;2023-12-04T02:53:56;27.20;;;14.35;;
35592;SDS011;64447;52.140;5.602;2023-12-04T02:56:22;23.70;;;13.75;;
35592;SDS011;64447;52.140;5.602;2023-12-04T02:58:47;23.92;;;13.55;;
35592;SDS011;64447;52.140;5.602;2023-12-04T03:01:13;23.80;;;13.98;;
35592;SDS011;64447;52.140;5.602;2023-12-04T03:03:39;24.27;;;14.27;;
35592;SDS011;64447;52.140;5.602;2023-12-04T03:06:04;24.30;;;13.75;;
35592;SDS011;64447;52.140;5.602;2023-12-04T03:08:30;24.15;;;14.35;;
35592;SDS011;64447;52.140;5.602;2023-12-04T03:10:56;23.75;;;13.77;;
35592;SDS011;64447;52.140;5.602;2023-12-04T03:13:22;24.67;;;14.00;;
35592;SDS011;64447;52.140;5.602;2023-12-04T03:15:47;25.73;;;14.27;;
35592;SDS011;64447;52.140;5.602;2023-12-04T03:18:13;23.80;;;13.68;;
35592;SDS011;64447;52.140;5.602;2023-12-04T03:20:39;25.40;;;13.80;;
35592;SDS011;64447;52.140;5.602;2023-12-04T03:23:04;25.25;;;14.02;;
35592;SDS011;64447;52.140;5.602;2023-12-04T03:25:30;25.25;;;14.45;;
35592;SDS011;64447;52.140;5.602;2023-12-04T03:27:55;23.52;;;13.57;;
35592;SDS011;64447;52.140;5.602;2023-12-04T03:30:21;22.67;;;13.02;;
35592;SDS011;64447;52.140;5.602;2023-12-04T03:32:47;23.45;;;13.25;;
35592;SDS011;64447;52.140;5.602;2023-12-04T03:35:12;23.90;;;13.68;;
35592;SDS011;64447;52.140;5.602;2023-12-04T03:37:38;23.10;;;13.38;;
35592;SDS011;64447;52.140;5.602;2023-12-04T03:40:04;22.20;;;13.35;;
35592;SDS011;64447;52.140;5.602;2023-12-04T03:42:30;23.38;;;14.10;;
35592;SDS011;64447;52.140;5.602;2023-12-04T03:44:55;23.30;;;13.05;;
35592;SDS011;64447;52.140;5.602;2023-12-04T03:47:21;23.27;;;13.38;;
35592;SDS011;64447;52.140;5.602;2023-12-04T03:49:48;22.38;;;13.15;;
35592;SDS011;64447;52.140;5.602;2023-12-04T03:52:14;22.20;;;12.60;;
35592;SDS011;64447;52.140;5.602;2023-12-04T03:54:39;22.45;;;12.75;;
35592;SDS011;64447;52.140;5.602;2023-12-04T03:57:05;24.23;;;13.68;;
35592;SDS011;64447;52.140;5.602;2023-12-04T03:59:31;20.95;;;12.88;;
35592;SDS011;64447;52.140;5.602;2023-12-04T04:01:56;21.40;;;12.88;;
35592;SDS011;64447;52.140;5.602;2023-12-04T04:04:22;21.65;;;12.35;;
35592;SDS011;64447;52.140;5.602;2023-12-04T04:06:47;19.70;;;12.10;;
35592;SDS011;64447;52.140;5.602;2023-12-04T04:09:13;22.73;;;12.52;;
35592;SDS011;64447;52.140;5.602;2023-12-04T04:11:39;20.33;;;12.60;;
35592;SDS011;64447;52.140;5.602;2023-12-04T04:14:05;20.73;;;11.43;;
35592;SDS011;64447;52.140;5.602;2023-12-04T04:16:30;18.15;;;12.02;;
35592;SDS011;64447;52.140;5.602;2023-12-04T04:18:56;20.83;;;12.52;;
35592;SDS011;64447;52.140;5.602;2023-12-04T04:21:22;21.15;;;12.65;;
35592;SDS011;64447;52.140;5.602;2023-12-04T04:23:48;20.92;;;13.07;;
35592;SDS011;64447;52.140;5.602;2023-12-04T04:26:13;21.88;;;11.93;;
35592;SDS011;64447;52.140;5.602;2023-12-04T04:28:39;21.90;;;12.27;;
35592;SDS011;64447;52.140;5.602;2023-12-04T04:31:04;20.13;;;12.40;;
35592;SDS011;64447;52.140;5.602;2023-12-04T04:33:30;22.80;;;12.20;;
35592;SDS011;64447;52.140;5.602;2023-12-04T04:35:56;22.90;;;12.82;;
35592;SDS011;64447;52.140;5.602;2023-12-04T04:38:21;22.33;;;12.23;;
35592;SDS011;64447;52.140;5.602;2023-12-04T04:40:47;21.40;;;12.63;;
35592;SDS011;64447;52.140;5.602;2023-12-04T04:43:13;20.27;;;11.93;;
35592;SDS011;64447;52.140;5.602;2023-12-04T04:45:38;17.90;;;12.13;;
35592;SDS011;64447;52.140;5.602;2023-12-04T04:48:04;22.00;;;11.68;;
35592;SDS011;64447;52.140;5.602;2023-12-04T04:50:30;19.40;;;11.57;;
35592;SDS011;64447;52.140;5.602;2023-12-04T04:52:55;19.40;;;12.25;;
35592;SDS011;64447;52.140;5.602;2023-12-04T04:55:21;20.80;;;11.73;;
35592;SDS011;64447;52.140;5.602;2023-12-04T04:57:46;19.50;;;11.70;;
35592;SDS011;64447;52.140;5.602;2023-12-04T05:00:12;17.10;;;12.00;;
35592;SDS011;64447;52.140;5.602;2023-12-04T05:02:38;18.90;;;11.80;;
35592;SDS011;64447;52.140;5.602;2023-12-04T05:05:04;19.10;;;10.93;;
35592;SDS011;64447;52.140;5.602;2023-12-04T05:07:29;20.88;;;11.48;;
35592;SDS011;64447;52.140;5.602;2023-12-04T05:09:55;18.48;;;11.13;;
35592;SDS011;64447;52.140;5.602;2023-12-04T05:12:21;19.67;;;11.13;;
35592;SDS011;64447;52.140;5.602;2023-12-04T05:14:46;19.45;;;11.18;;
35592;SDS011;64447;52.140;5.602;2023-12-04T05:17:12;16.55;;;10.40;;
35592;SDS011;64447;52.140;5.602;2023-12-04T05:19:37;20.63;;;11.27;;
35592;SDS011;64447;52.140;5.602;2023-12-04T05:22:03;18.30;;;10.90;;
35592;SDS011;64447;52.140;5.602;2023-12-04T05:24:29;18.40;;;10.70;;
35592;SDS011;64447;52.140;5.602;2023-12-04T05:26:54;19.50;;;10.45;;
35592;SDS011;64447;52.140;5.602;2023-12-04T05:29:20;16.98;;;10.95;;
35592;SDS011;64447;52.140;5.602;2023-12-04T05:31:46;17.60;;;10.73;;
35592;SDS011;64447;52.140;5.602;2023-12-04T05:34:12;17.88;;;9.90;;
35592;SDS011;64447;52.140;5.602;2023-12-04T05:36:37;18.67;;;10.45;;
35592;SDS011;64447;52.140;5.602;2023-12-04T05:39:03;19.88;;;11.73;;
35592;SDS011;64447;52.140;5.602;2023-12-04T05:41:29;16.42;;;10.65;;
35592;SDS011;64447;52.140;5.602;2023-12-04T05:43:55;17.40;;;11.32;;
35592;SDS011;64447;52.140;5.602;2023-12-04T05:46:21;17.85;;;12.05;;
35592;SDS011;64447;52.140;5.602;2023-12-04T05:48:47;15.80;;;10.82;;
35592;SDS011;64447;52.140;5.602;2023-12-04T05:51:13;17.15;;;10.88;;
35592;SDS011;64447;52.140;5.602;2023-12-04T05:53:40;17.38;;;10.98;;
35592;SDS011;64447;52.140;5.602;2023-12-04T05:56:06;16.92;;;10.88;;
35592;SDS011;64447;52.140;5.602;2023-12-04T05:58:34;16.67;;;11.52;;
35592;SDS011;64447;52.140;5.602;2023-12-04T06:00:59;17.77;;;10.90;;
35592;SDS011;64447;52.140;5.602;2023-12-04T06:03:25;19.10;;;11.73;;
35592;SDS011;64447;52.140;5.602;2023-12-04T06:05:51;17.00;;;11.10;;
35592;SDS011;64447;52.140;5.602;2023-12-04T06:08:17;18.27;;;10.45;;
35592;SDS011;64447;52.140;5.602;2023-12-04T06:10:42;19.17;;;10.77;;
35592;SDS011;64447;52.140;5.602;2023-12-04T06:13:08;15.80;;;10.52;;
35592;SDS011;64447;52.140;5.602;2023-12-04T06:15:34;17.90;;;11.10;;
35592;SDS011;64447;52.140;5.602;2023-12-04T06:17:59;17.25;;;10.88;;
35592;SDS011;64447;52.140;5.602;2023-12-04T06:20:25;15.30;;;11.10;;
35592;SDS011;64447;52.140;5.602;2023-12-04T06:22:51;18.38;;;11.02;;
35592;SDS011;64447;52.140;5.602;2023-12-04T06:25:16;16.45;;;10.48;;
35592;SDS011;64447;52.140;5.602;2023-12-04T06:27:43;15.82;;;10.25;;
35592;SDS011;64447;52.140;5.602;2023-12-04T06:30:09;15.75;;;10.48;;
35592;SDS011;64447;52.140;5.602;2023-12-04T06:32:35;15.63;;;10.00;;
35592;SDS011;64447;52.140;5.602;2023-12-04T06:35:01;15.15;;;10.35;;
35592;SDS011;64447;52.140;5.602;2023-12-04T06:37:28;15.85;;;9.77;;
35592;SDS011;64447;52.140;5.602;2023-12-04T06:39:54;15.43;;;10.02;;
35592;SDS011;64447;52.140;5.602;2023-12-04T06:42:24;16.42;;;10.80;;
35592;SDS011;64447;52.140;5.602;2023-12-04T06:44:50;13.57;;;9.20;;
35592;SDS011;64447;52.140;5.602;2023-12-04T06:47:17;16.05;;;10.02;;
35592;SDS011;64447;52.140;5.602;2023-12-04T06:49:47;15.15;;;9.75;;
35592;SDS011;64447;52.140;5.602;2023-12-04T06:52:12;14.25;;;9.30;;
35592;SDS011;64447;52.140;5.602;2023-12-04T06:54:38;17.40;;;10.15;;
35592;SDS011;64447;52.140;5.602;2023-12-04T06:57:04;17.20;;;9.73;;
35592;SDS011;64447;52.140;5.602;2023-12-04T06:59:29;16.10;;;10.25;;
35592;SDS011;64447;52.140;5.602;2023-12-04T07:01:55;16.38;;;10.10;;
35592;SDS011;64447;52.140;5.602;2023-12-04T07:04:21;14.80;;;9.25;;
35592;SDS011;64447;52.140;5.602;2023-12-04T07:06:46;15.75;;;9.38;;
35592;SDS011;64447;52.140;5.602;2023-12-04T07:09:13;14.43;;;8.95;;
35592;SDS011;64447;52.140;5.602;2023-12-04T07:11:39;17.63;;;10.68;;
35592;SDS011;64447;52.140;5.602;2023-12-04T07:14:05;16.45;;;10.25;;
35592;SDS011;64447;52.140;5.602;2023-12-04T07:16:30;15.85;;;10.15;;
35592;SDS011;64447;52.140;5.602;2023-12-04T07:18:56;14.52;;;9.68;;
35592;SDS011;64447;52.140;5.602;2023-12-04T07:21:21;14.07;;;8.85;;
35592;SDS011;64447;52.140;5.602;2023-12-04T07:23:47;14.68;;;9.70;;
35592;SDS011;64447;52.140;5.602;2023-12-04T07:26:13;12.85;;;9.10;;
35592;SDS011;64447;52.140;5.602;2023-12-04T07:28:38;13.13;;;9.15;;
35592;SDS011;64447;52.140;5.602;2023-12-04T07:31:04;14.90;;;9.27;;
35592;SDS011;64447;52.140;5.602;2023-12-04T07:33:30;13.57;;;9.05;;
35592;SDS011;64447;52.140;5.602;2023-12-04T07:35:55;14.30;;;9.18;;
35592;SDS011;64447;52.140;5.602;2023-12-04T07:38:21;15.73;;;8.85;;
35592;SDS011;64447;52.140;5.602;2023-12-04T07:40:47;15.35;;;9.02;;
35592;SDS011;64447;52.140;5.602;2023-12-04T07:43:13;13.13;;;8.73;;
35592;SDS011;64447;52.140;5.602;2023-12-04T07:45:39;15.80;;;8.80;;
35592;SDS011;64447;52.140;5.602;2023-12-04T07:48:06;13.25;;;8.68;;
35592;SDS011;64447;52.140;5.602;2023-12-04T07:50:31;11.75;;;8.57;;
35592;SDS011;64447;52.140;5.602;2023-12-04T07:52:57;13.07;;;8.55;;
35592;SDS011;64447;52.140;5.602;2023-12-04T07:55:23;12.30;;;8.18;;
35592;SDS011;64447;52.140;5.602;2023-12-04T07:57:48;12.48;;;8.00;;
35592;SDS011;64447;52.140;5.602;2023-12-04T08:00:15;12.65;;;8.88;;
35592;SDS011;64447;52.140;5.602;2023-12-04T08:02:43;13.68;;;8.68;;
35592;SDS011;64447;52.140;5.602;2023-12-04T08:05:10;11.48;;;7.82;;
35592;SDS011;64447;52.140;5.602;2023-12-04T08:07:35;13.90;;;8.30;;
35592;SDS011;64447;52.140;5.602;2023-12-04T08:10:01;12.65;;;8.07;;
35592;SDS011;64447;52.140;5.602;2023-12-04T08:12:27;11.38;;;7.53;;
35592;SDS011;64447;52.140;5.602;2023-12-04T08:14:52;11.27;;;7.70;;
35592;SDS011;64447;52.140;5.602;2023-12-04T08:17:18;13.93;;;8.45;;
35592;SDS011;64447;52.140;5.602;2023-12-04T08:19:44;11.02;;;8.07;;
35592;SDS011;64447;52.140;5.602;2023-12-04T08:22:10;10.15;;;7.57;;
35592;SDS011;64447;52.140;5.602;2023-12-04T08:24:35;12.85;;;8.00;;
35592;SDS011;64447;52.140;5.602;2023-12-04T08:27:01;11.07;;;7.90;;
35592;SDS011;64447;52.140;5.602;2023-12-04T08:29:26;11.98;;;7.53;;
35592;SDS011;64447;52.140;5.602;2023-12-04T08:31:52;11.98;;;7.38;;
35592;SDS011;64447;52.140;5.602;2023-12-04T08:34:18;10.82;;;7.07;;
35592;SDS011;64447;52.140;5.602;2023-12-04T08:36:43;10.77;;;7.55;;
35592;SDS011;64447;52.140;5.602;2023-12-04T08:39:09;11.13;;;7.57;;
35592;SDS011;64447;52.140;5.602;2023-12-04T08:41:35;12.13;;;7.53;;
35592;SDS011;64447;52.140;5.602;2023-12-04T08:44:00;11.43;;;7.72;;
35592;SDS011;64447;52.140;5.602;2023-12-04T08:46:26;10.90;;;7.25;;
35592;SDS011;64447;52.140;5.602;2023-12-04T08:48:52;9.63;;;7.00;;
35592;SDS011;64447;52.140;5.602;2023-12-04T08:51:18;12.27;;;8.45;;
35592;SDS011;64447;52.140;5.602;2023-12-04T08:53:44;11.77;;;8.18;;
35592;SDS011;64447;52.140;5.602;2023-12-04T08:56:10;12.43;;;7.53;;
35592;SDS011;64447;52.140;5.602;2023-12-04T08:58:36;10.45;;;7.35;;
35592;SDS011;64447;52.140;5.602;2023-12-04T09:01:02;10.93;;;7.00;;
35592;SDS011;64447;52.140;5.602;2023-12-04T09:03:28;11.60;;;7.47;;
35592;SDS011;64447;52.140;5.602;2023-12-04T09:05:56;10.93;;;7.35;;
35592;SDS011;64447;52.140;5.602;2023-12-04T09:08:22;11.50;;;7.68;;
35592;SDS011;64447;52.140;5.602;2023-12-04T09:10:50;10.60;;;7.25;;
35592;SDS011;64447;52.140;5.602;2023-12-04T09:13:16;13.73;;;8.38;;
35592;SDS011;64447;52.140;5.602;2023-12-04T09:15:42;10.98;;;7.75;;
35592;SDS011;64447;52.140;5.602;2023-12-04T09:18:07;10.10;;;6.70;;
35592;SDS011;64447;52.140;5.602;2023-12-04T09:20:33;11.00;;;7.00;;
35592;SDS011;64447;52.140;5.602;2023-12-04T09:22:59;11.18;;;7.40;;
35592;SDS011;64447;52.140;5.602;2023-12-04T09:25:24;11.20;;;7.60;;
35592;SDS011;64447;52.140;5.602;2023-12-04T09:27:50;10.38;;;7.15;;
35592;SDS011;64447;52.140;5.602;2023-12-04T09:30:16;10.50;;;7.20;;
35592;SDS011;64447;52.140;5.602;2023-12-04T09:32:42;11.85;;;8.40;;
35592;SDS011;64447;52.140;5.602;2023-12-04T09:35:08;11.18;;;7.72;;
35592;SDS011;64447;52.140;5.602;2023-12-04T09:37:34;10.07;;;6.93;;
35592;SDS011;64447;52.140;5.602;2023-12-04T09:40:00;11.32;;;7.80;;
35592;SDS011;64447;52.140;5.602;2023-12-04T09:42:26;9.48;;;7.20;;
35592;SDS011;64447;52.140;5.602;2023-12-04T09:44:52;10.80;;;7.82;;
35592;SDS011;64447;52.140;5.602;2023-12-04T09:47:19;10.18;;;7.50;;
35592;SDS011;64447;52.140;5.602;2023-12-04T09:49:46;11.27;;;7.57;;
35592;SDS011;64447;52.140;5.602;2023-12-04T09:52:13;12.27;;;6.85;;
35592;SDS011;64447;52.140;5.602;2023-12-04T09:54:39;11.52;;;8.15;;
35592;SDS011;64447;52.140;5.602;2023-12-04T09:57:06;10.88;;;7.30;;
35592;SDS011;64447;52.140;5.602;2023-12-04T09:59:32;10.98;;;7.22;;
35592;SDS011;64447;52.140;5.602;2023-12-04T10:01:58;10.63;;;7.20;;
35592;SDS011;64447;52.140;5.602;2023-12-04T10:04:24;12.20;;;7.32;;
35592;SDS011;64447;52.140;5.602;2023-12-04T10:06:50;9.45;;;6.25;;
35592;SDS011;64447;52.140;5.602;2023-12-04T10:09:17;10.20;;;6.40;;
35592;SDS011;64447;52.140;5.602;2023-12-04T10:11:46;9.10;;;5.75;;
35592;SDS011;64447;52.140;5.602;2023-12-04T10:14:14;9.45;;;6.55;;
35592;SDS011;64447;52.140;5.602;2023-12-04T10:16:41;18.55;;;8.00;;
35592;SDS011;64447;52.140;5.602;2023-12-04T10:19:14;9.30;;;6.18;;
35592;SDS011;64447;52.140;5.602;2023-12-04T10:21:41;16.48;;;7.00;;
35592;SDS011;64447;52.140;5.602;2023-12-04T10:24:07;9.38;;;6.13;;
35592;SDS011;64447;52.140;5.602;2023-12-04T10:26:34;11.40;;;6.20;;
35592;SDS011;64447;52.140;5.602;2023-12-04T10:29:00;9.13;;;6.35;;
35592;SDS011;64447;52.140;5.602;2023-12-04T10:31:34;13.23;;;6.22;;
35592;SDS011;64447;52.140;5.602;2023-12-04T10:34:01;9.82;;;6.25;;
35592;SDS011;64447;52.140;5.602;2023-12-04T10:36:27;8.50;;;6.18;;
35592;SDS011;64447;52.140;5.602;2023-12-04T10:38:59;7.80;;;5.95;;
35592;SDS011;64447;52.140;5.602;2023-12-04T10:41:26;11.00;;;6.30;;
35592;SDS011;64447;52.140;5.602;2023-12-04T10:43:52;11.95;;;6.95;;
35592;SDS011;64447;52.140;5.602;2023-12-04T10:46:20;10.82;;;6.07;;
35592;SDS011;64447;52.140;5.602;2023-12-04T10:48:47;10.35;;;6.30;;
35592;SDS011;64447;52.140;5.602;2023-12-04T10:51:13;10.57;;;6.90;;
35592;SDS011;64447;52.140;5.602;2023-12-04T10:53:42;10.70;;;7.40;;
35592;SDS011;64447;52.140;5.602;2023-12-04T10:56:10;11.50;;;7.25;;
35592;SDS011;64447;52.140;5.602;2023-12-04T10:58:39;13.48;;;8.68;;
35592;SDS011;64447;52.140;5.602;2023-12-04T11:01:07;11.57;;;7.15;;
35592;SDS011;64447;52.140;5.602;2023-12-04T11:03:40;11.63;;;8.00;;
35592;SDS011;64447;52.140;5.602;2023-12-04T11:06:09;10.80;;;7.90;;
35592;SDS011;64447;52.140;5.602;2023-12-04T11:08:37;12.05;;;7.72;;
35592;SDS011;64447;52.140;5.602;2023-12-04T11:11:07;11.15;;;7.50;;
35592;SDS011;64447;52.140;5.602;2023-12-04T11:13:38;12.93;;;8.27;;
35592;SDS011;64447;52.140;5.602;2023-12-04T11:19:14;11.77;;;8.15;;
35592;SDS011;64447;52.140;5.602;2023-12-04T11:22:00;11.18;;;8.38;;
35592;SDS011;64447;52.140;5.602;2023-12-04T11:24:27;11.65;;;8.13;;
35592;SDS011;64447;52.140;5.602;2023-12-04T11:26:53;11.68;;;8.27;;
35592;SDS011;64447;52.140;5.602;2023-12-04T11:29:19;12.45;;;8.48;;
35592;SDS011;64447;52.140;5.602;2023-12-04T11:31:46;12.48;;;8.48;;
35592;SDS011;64447;52.140;5.602;2023-12-04T11:34:12;12.82;;;8.60;;
35592;SDS011;64447;52.140;5.602;2023-12-04T11:36:38;14.38;;;8.68;;
35592;SDS011;64447;52.140;5.602;2023-12-04T11:39:08;12.52;;;8.55;;
35592;SDS011;64447;52.140;5.602;2023-12-04T11:41:37;13.27;;;8.82;;
35592;SDS011;64447;52.140;5.602;2023-12-04T11:44:11;13.35;;;8.23;;
35592;SDS011;64447;52.140;5.602;2023-12-04T11:46:56;11.50;;;8.68;;
35592;SDS011;64447;52.140;5.602;2023-12-04T11:49:28;13.40;;;8.30;;
35592;SDS011;64447;52.140;5.602;2023-12-04T11:51:59;12.65;;;8.45;;
35592;SDS011;64447;52.140;5.602;2023-12-04T11:54:27;11.43;;;8.73;;
35592;SDS011;64447;52.140;5.602;2023-12-04T11:59:38;11.73;;;8.52;;
35592;SDS011;64447;52.140;5.602;2023-12-04T12:02:09;12.52;;;8.50;;
35592;SDS011;64447;52.140;5.602;2023-12-04T12:04:36;11.90;;;8.65;;
35592;SDS011;64447;52.140;5.602;2023-12-04T12:07:02;12.88;;;8.52;;
35592;SDS011;64447;52.140;5.602;2023-12-04T12:09:30;12.52;;;9.02;;
35592;SDS011;64447;52.140;5.602;2023-12-04T12:11:59;12.57;;;8.77;;
35592;SDS011;64447;52.140;5.602;2023-12-04T12:14:28;13.30;;;8.57;;
35592;SDS011;64447;52.140;5.602;2023-12-04T12:16:55;12.52;;;9.05;;
35592;SDS011;64447;52.140;5.602;2023-12-04T12:19:23;15.55;;;9.85;;
35592;SDS011;64447;52.140;5.602;2023-12-04T12:21:48;15.50;;;9.63;;
35592;SDS011;64447;52.140;5.602;2023-12-04T12:24:16;12.70;;;9.15;;
35592;SDS011;64447;52.140;5.602;2023-12-04T12:26:43;14.57;;;9.82;;
35592;SDS011;64447;52.140;5.602;2023-12-04T12:29:10;14.80;;;9.60;;
35592;SDS011;64447;52.140;5.602;2023-12-04T12:31:36;14.63;;;9.68;;
35592;SDS011;64447;52.140;5.602;2023-12-04T12:34:02;14.40;;;9.55;;
35592;SDS011;64447;52.140;5.602;2023-12-04T12:36:28;13.30;;;8.93;;
35592;SDS011;64447;52.140;5.602;2023-12-04T12:38:55;12.00;;;8.50;;
35592;SDS011;64447;52.140;5.602;2023-12-04T12:41:21;13.55;;;9.38;;
35592;SDS011;64447;52.140;5.602;2023-12-04T12:43:47;16.58;;;9.00;;
35592;SDS011;64447;52.140;5.602;2023-12-04T12:46:17;17.85;;;8.23;;
35592;SDS011;64447;52.140;5.602;2023-12-04T12:48:42;11.90;;;8.75;;
35592;SDS011;64447;52.140;5.602;2023-12-04T12:51:09;12.82;;;8.70;;
35592;SDS011;64447;52.140;5.602;2023-12-04T12:53:36;11.75;;;8.57;;
35592;SDS011;64447;52.140;5.602;2023-12-04T12:56:02;11.85;;;8.95;;
35592;SDS011;64447;52.140;5.602;2023-12-04T12:58:28;11.07;;;7.68;;
35592;SDS011;64447;52.140;5.602;2023-12-04T13:00:54;13.50;;;8.77;;
35592;SDS011;64447;52.140;5.602;2023-12-04T13:03:20;12.45;;;8.10;;
35592;SDS011;64447;52.140;5.602;2023-12-04T13:05:46;12.32;;;8.18;;
35592;SDS011;64447;52.140;5.602;2023-12-04T13:08:12;17.65;;;10.30;;
35592;SDS011;64447;52.140;5.602;2023-12-04T13:10:38;15.98;;;9.07;;
35592;SDS011;64447;52.140;5.602;2023-12-04T13:13:09;12.82;;;8.23;;
35592;SDS011;64447;52.140;5.602;2023-12-04T13:15:36;12.23;;;8.23;;
35592;SDS011;64447;52.140;5.602;2023-12-04T13:18:02;14.88;;;8.70;;
35592;SDS011;64447;52.140;5.602;2023-12-04T13:20:27;12.90;;;8.20;;
35592;SDS011;64447;52.140;5.602;2023-12-04T13:22:53;13.20;;;8.48;;
35592;SDS011;64447;52.140;5.602;2023-12-04T13:25:18;12.13;;;7.78;;
35592;SDS011;64447;52.140;5.602;2023-12-04T13:27:45;13.75;;;8.80;;
35592;SDS011;64447;52.140;5.602;2023-12-04T13:30:11;12.45;;;8.85;;
35592;SDS011;64447;52.140;5.602;2023-12-04T13:32:37;15.02;;;9.20;;
35592;SDS011;64447;52.140;5.602;2023-12-04T13:35:03;17.92;;;10.57;;
35592;SDS011;64447;52.140;5.602;2023-12-04T13:37:33;13.77;;;9.70;;
35592;SDS011;64447;52.140;5.602;2023-12-04T13:40:01;13.05;;;9.18;;
35592;SDS011;64447;52.140;5.602;2023-12-04T13:42:37;11.98;;;9.05;;
35592;SDS011;64447;52.140;5.602;2023-12-04T13:45:22;13.85;;;8.60;;
35592;SDS011;64447;52.140;5.602;2023-12-04T13:47:48;14.07;;;8.32;;
35592;SDS011;64447;52.140;5.602;2023-12-04T13:50:14;13.93;;;8.65;;
35592;SDS011;64447;52.140;5.602;2023-12-04T13:52:40;15.57;;;8.88;;
35592;SDS011;64447;52.140;5.602;2023-12-04T13:55:08;15.45;;;8.73;;
35592;SDS011;64447;52.140;5.602;2023-12-04T13:57:44;13.73;;;8.82;;
35592;SDS011;64447;52.140;5.602;2023-12-04T14:00:28;11.85;;;8.52;;
35592;SDS011;64447;52.140;5.602;2023-12-04T14:02:53;12.70;;;8.43;;
35592;SDS011;64447;52.140;5.602;2023-12-04T14:05:25;11.23;;;8.73;;
35592;SDS011;64447;52.140;5.602;2023-12-04T14:07:51;17.67;;;9.50;;
35592;SDS011;64447;52.140;5.602;2023-12-04T14:10:17;13.10;;;8.52;;
35592;SDS011;64447;52.140;5.602;2023-12-04T14:12:43;12.23;;;8.35;;
35592;SDS011;64447;52.140;5.602;2023-12-04T14:15:09;12.02;;;8.10;;
35592;SDS011;64447;52.140;5.602;2023-12-04T14:17:35;10.57;;;8.00;;
35592;SDS011;64447;52.140;5.602;2023-12-04T14:20:00;11.32;;;8.98;;
35592;SDS011;64447;52.140;5.602;2023-12-04T14:22:36;11.55;;;8.02;;
35592;SDS011;64447;52.140;5.602;2023-12-04T14:25:02;12.10;;;8.10;;
35592;SDS011;64447;52.140;5.602;2023-12-04T14:27:27;12.63;;;8.27;;
35592;SDS011;64447;52.140;5.602;2023-12-04T14:29:53;14.48;;;9.15;;